Time;durP1;ratioP1;P1;durP2;ratioP2;P2;SDS_P1;SDS_P2;PMS_P1;PMS_P2;Temp;Humidity;BMP_temperature;BMP_pressure;BME280_temperature;BME280_humidity;BME280_pressure;Samples;Min_cycle;Max_cycle;Signal;HPM_P1;HPM_P2
2022/07/25 00:01:59;;;;;;;7.40;6.90;;;;;;;;;;5003417;28;20177;-67
2022/07/25 00:04:31;;;;;;;8.13;7.63;;;;;;;;;;4996635;28;20300;-63
2022/07/25 00:06:57;;;;;;;7.67;7.10;;;;;;;;;;4990703;28;20585;-62
2022/07/25 00:09:23;;;;;;;8.07;7.57;;;;;;;;;;5013038;28;20588;-65
2022/07/25 00:11:50;;;;;;;7.30;6.80;;;;;;;;;;5005829;28;20207;-63
2022/07/25 00:14:18;;;;;;;7.57;6.97;;;;;;;;;;4995348;28;20198;-65
2022/07/25 00:16:44;;;;;;;7.93;7.33;;;;;;;;;;4994335;28;20190;-64
2022/07/25 00:19:11;;;;;;;7.83;7.30;;;;;;;;;;5005443;28;20185;-64
2022/07/25 00:21:37;;;;;;;8.40;7.80;;;;;;;;;;5002766;28;20195;-64
2022/07/25 00:24:03;;;;;;;8.27;7.60;;;;;;;;;;5004311;28;20211;-66
2022/07/25 00:26:29;;;;;;;7.63;7.13;;;;;;;;;;4988771;28;20448;-62
2022/07/25 00:28:55;;;;;;;7.83;7.30;;;;;;;;;;5012473;28;20610;-63
2022/07/25 00:31:21;;;;;;;8.23;7.73;;;;;;;;;;5004844;28;20181;-65
2022/07/25 00:33:47;;;;;;;8.00;7.47;;;;;;;;;;4998365;28;20679;-65
2022/07/25 00:36:16;;;;;;;8.00;7.40;;;;;;;;;;4988955;28;20508;-63
2022/07/25 00:38:42;;;;;;;7.40;6.90;;;;;;;;;;5002174;28;20178;-62
2022/07/25 00:41:11;;;;;;;8.47;7.73;;;;;;;;;;5012380;28;20292;-65
2022/07/25 00:43:37;;;;;;;7.53;7.03;;;;;;;;;;4994608;28;20208;-66
2022/07/25 00:46:03;;;;;;;7.90;7.30;;;;;;;;;;4988322;28;20188;-64
2022/07/25 00:48:30;;;;;;;7.20;6.57;;;;;;;;;;5006482;28;20180;-64
2022/07/25 00:50:56;;;;;;;8.13;7.53;;;;;;;;;;5007787;28;20193;-63
2022/07/25 00:53:22;;;;;;;7.53;7.03;;;;;;;;;;5005235;28;20233;-66
2022/07/25 00:55:48;;;;;;;7.63;7.13;;;;;;;;;;5007811;28;20185;-65
2022/07/25 00:58:15;;;;;;;8.37;7.73;;;;;;;;;;5019543;28;20759;-65
2022/07/25 01:00:41;;;;;;;8.33;7.53;;;;;;;;;;5007097;28;20200;-64
2022/07/25 01:03:07;;;;;;;7.27;6.77;;;;;;;;;;5023264;28;20262;-65
2022/07/25 01:05:33;;;;;;;7.93;7.33;;;;;;;;;;5017084;28;20546;-61
2022/07/25 01:07:59;;;;;;;8.17;7.63;;;;;;;;;;5006045;28;20721;-64
2022/07/25 01:10:25;;;;;;;7.93;7.33;;;;;;;;;;5027090;28;20568;-64
2022/07/25 01:12:53;;;;;;;7.40;6.90;;;;;;;;;;5007155;28;20187;-64
2022/07/25 01:15:20;;;;;;;7.97;7.43;;;;;;;;;;5027705;28;20561;-63
2022/07/25 01:17:46;;;;;;;7.53;7.03;;;;;;;;;;5023302;28;20708;-60
2022/07/25 01:20:13;;;;;;;7.80;7.30;;;;;;;;;;5024068;28;20695;-61
2022/07/25 01:22:39;;;;;;;8.57;7.80;;;;;;;;;;5033606;28;20215;-63
2022/07/25 01:25:06;;;;;;;7.83;7.33;;;;;;;;;;5024972;28;20694;-63
2022/07/25 01:27:32;;;;;;;7.67;7.17;;;;;;;;;;5030611;28;20176;-62
2022/07/25 01:30:01;;;;;;;7.43;6.93;;;;;;;;;;5013354;28;20174;-62
2022/07/25 01:32:34;;;;;;;7.70;7.13;;;;;;;;;;5023620;28;20204;-63
2022/07/25 01:35:08;;;;;;;7.20;6.70;;;;;;;;;;5025581;28;20194;-63
2022/07/25 01:37:35;;;;;;;7.63;7.13;;;;;;;;;;5006753;28;20562;-62
2022/07/25 01:40:07;;;;;;;7.97;7.38;;;;;;;;;;5023761;28;20571;-64
2022/07/25 01:42:33;;;;;;;7.97;7.47;;;;;;;;;;5024160;28;20213;-64
2022/07/25 01:44:59;;;;;;;8.40;7.80;;;;;;;;;;5026398;28;20700;-64
2022/07/25 01:47:26;;;;;;;7.80;7.30;;;;;;;;;;5009552;28;20210;-63
2022/07/25 01:49:52;;;;;;;7.43;6.93;;;;;;;;;;5024691;28;20885;-63
2022/07/25 01:52:21;;;;;;;8.23;7.40;;;;;;;;;;5037576;28;20205;-62
2022/07/25 01:54:47;;;;;;;7.97;7.43;;;;;;;;;;5027414;28;20197;-63
2022/07/25 01:57:13;;;;;;;7.13;6.63;;;;;;;;;;5004925;28;20196;-62
2022/07/25 01:59:39;;;;;;;7.80;7.30;;;;;;;;;;5018636;28;20743;-61
2022/07/25 02:02:06;;;;;;;7.93;7.23;;;;;;;;;;5022039;28;20644;-62
2022/07/25 02:04:33;;;;;;;7.30;6.80;;;;;;;;;;5019831;28;20683;-62
2022/07/25 02:06:59;;;;;;;7.47;6.87;;;;;;;;;;5023843;28;20271;-62
2022/07/25 02:09:28;;;;;;;8.00;7.47;;;;;;;;;;5028198;28;20200;-63
2022/07/25 02:11:54;;;;;;;7.77;7.27;;;;;;;;;;5024280;28;20238;-62
2022/07/25 02:14:20;;;;;;;10.80;8.23;;;;;;;;;;5009433;28;20672;-63
2022/07/25 02:16:46;;;;;;;8.00;7.40;;;;;;;;;;5007228;28;20233;-62
2022/07/25 02:19:12;;;;;;;7.90;7.33;;;;;;;;;;5011810;28;20656;-60
2022/07/25 02:21:38;;;;;;;8.03;7.53;;;;;;;;;;5011347;28;20192;-63
2022/07/25 02:24:08;;;;;;;7.63;6.93;;;;;;;;;;5028178;28;20251;-62
2022/07/25 02:26:34;;;;;;;7.47;6.97;;;;;;;;;;5011703;28;20817;-63
2022/07/25 02:29:00;;;;;;;6.90;6.37;;;;;;;;;;5033816;28;20593;-62
2022/07/25 02:31:26;;;;;;;7.53;7.03;;;;;;;;;;5010794;28;20162;-63
2022/07/25 02:33:52;;;;;;;7.87;7.27;;;;;;;;;;5038709;28;20866;-62
2022/07/25 02:36:18;;;;;;;8.00;7.50;;;;;;;;;;5047931;28;20337;-63
2022/07/25 02:38:44;;;;;;;7.83;7.23;;;;;;;;;;5008091;28;20189;-64
2022/07/25 02:41:11;;;;;;;8.43;7.87;;;;;;;;;;5024290;28;20233;-62
2022/07/25 02:43:37;;;;;;;7.67;7.17;;;;;;;;;;5026558;28;20691;-64
2022/07/25 02:46:03;;;;;;;8.37;7.77;;;;;;;;;;5028513;28;20184;-63
2022/07/25 02:48:29;;;;;;;7.30;6.73;;;;;;;;;;5015662;28;20233;-60
2022/07/25 02:50:55;;;;;;;8.43;7.83;;;;;;;;;;5038193;28;20193;-62
2022/07/25 02:53:21;;;;;;;8.33;7.73;;;;;;;;;;5034121;28;20633;-65
2022/07/25 02:55:48;;;;;;;7.50;6.90;;;;;;;;;;5011725;28;20201;-63
2022/07/25 02:58:14;;;;;;;7.57;6.97;;;;;;;;;;5026037;28;20254;-63
2022/07/25 03:00:42;;;;;;;8.33;7.57;;;;;;;;;;5010550;28;20649;-65
2022/07/25 03:03:08;;;;;;;7.60;7.10;;;;;;;;;;5013654;28;20206;-64
2022/07/25 03:05:34;;;;;;;8.00;7.50;;;;;;;;;;5044206;28;20256;-62
2022/07/25 03:08:00;;;;;;;7.77;7.17;;;;;;;;;;5025435;28;20252;-64
2022/07/25 03:10:26;;;;;;;7.53;6.97;;;;;;;;;;5010409;28;20693;-60
2022/07/25 03:12:53;;;;;;;7.23;6.73;;;;;;;;;;5009004;28;20596;-62
2022/07/25 03:15:19;;;;;;;8.53;7.87;;;;;;;;;;5030288;28;20208;-65
2022/07/25 03:17:48;;;;;;;8.13;7.63;;;;;;;;;;5013964;28;20565;-62
2022/07/25 03:20:14;;;;;;;8.33;7.73;;;;;;;;;;5010028;28;20320;-63
2022/07/25 03:22:40;;;;;;;8.97;8.33;;;;;;;;;;5010936;28;20189;-64
2022/07/25 03:25:06;;;;;;;8.53;8.00;;;;;;;;;;5010329;28;20637;-65
2022/07/25 03:27:32;;;;;;;10.63;9.83;;;;;;;;;;5024155;28;20174;-64
2022/07/25 03:29:58;;;;;;;8.27;7.67;;;;;;;;;;5010485;28;20234;-64
2022/07/25 03:32:25;;;;;;;8.07;7.50;;;;;;;;;;5030088;28;20182;-64
2022/07/25 03:34:58;;;;;;;8.03;7.53;;;;;;;;;;5011966;28;20557;-63
2022/07/25 03:37:24;;;;;;;7.90;7.30;;;;;;;;;;5013936;28;20510;-63
2022/07/25 03:39:50;;;;;;;10.00;9.13;;;;;;;;;;5027937;28;20567;-65
2022/07/25 03:42:16;;;;;;;7.77;7.27;;;;;;;;;;5014569;28;20189;-64
2022/07/25 03:44:42;;;;;;;8.80;8.27;;;;;;;;;;5010406;28;20228;-65
2022/07/25 03:47:08;;;;;;;7.80;7.30;;;;;;;;;;5009369;28;20181;-63
2022/07/25 03:49:34;;;;;;;7.93;7.43;;;;;;;;;;5028157;28;20189;-64
2022/07/25 03:52:01;;;;;;;8.63;7.93;;;;;;;;;;5011203;28;20307;-64
2022/07/25 03:54:27;;;;;;;7.73;7.23;;;;;;;;;;5026021;28;20240;-65
2022/07/25 03:56:53;;;;;;;8.43;7.83;;;;;;;;;;5029592;28;20174;-65
2022/07/25 03:59:20;;;;;;;8.03;7.50;;;;;;;;;;5009359;28;20236;-63
2022/07/25 04:01:49;;;;;;;7.63;7.03;;;;;;;;;;5024644;28;20686;-65
2022/07/25 04:04:15;;;;;;;8.17;7.57;;;;;;;;;;5003089;28;20268;-64
2022/07/25 04:06:41;;;;;;;8.20;7.60;;;;;;;;;;5011092;28;20187;-62
2022/07/25 04:09:08;;;;;;;13.60;12.83;;;;;;;;;;5008529;28;20166;-64
2022/07/25 04:11:34;;;;;;;7.90;7.30;;;;;;;;;;5022393;28;20195;-62
2022/07/25 04:14:04;;;;;;;7.80;7.30;;;;;;;;;;5001627;28;20680;-63
2022/07/25 04:16:30;;;;;;;7.20;6.70;;;;;;;;;;5015097;28;20194;-63
2022/07/25 04:18:57;;;;;;;9.00;8.30;;;;;;;;;;5011689;28;20315;-62
2022/07/25 04:21:23;;;;;;;12.00;11.10;;;;;;;;;;5030781;28;20690;-63
2022/07/25 04:23:49;;;;;;;7.57;7.00;;;;;;;;;;5027761;28;20195;-61
2022/07/25 04:26:16;;;;;;;7.90;7.40;;;;;;;;;;5026405;28;20184;-60
2022/07/25 04:28:42;;;;;;;7.67;7.17;;;;;;;;;;5026360;28;20560;-63
2022/07/25 04:31:08;;;;;;;7.40;6.80;;;;;;;;;;5028891;28;20177;-63
2022/07/25 04:33:38;;;;;;;7.63;7.03;;;;;;;;;;5010657;28;20311;-59
2022/07/25 04:36:06;;;;;;;7.37;6.87;;;;;;;;;;5038929;28;20191;-61
2022/07/25 04:38:33;;;;;;;8.60;8.00;;;;;;;;;;5023769;28;20191;-63
2022/07/25 04:40:59;;;;;;;6.97;6.47;;;;;;;;;;5034777;28;20729;-62
2022/07/25 04:43:25;;;;;;;7.77;7.27;;;;;;;;;;5016122;28;20204;-64
2022/07/25 04:45:52;;;;;;;7.70;7.20;;;;;;;;;;5027888;28;20182;-64
2022/07/25 04:48:18;;;;;;;7.53;7.03;;;;;;;;;;5021476;28;20444;-63
2022/07/25 04:50:47;;;;;;;7.50;6.90;;;;;;;;;;5010498;28;20842;-61
2022/07/25 04:53:13;;;;;;;7.43;6.93;;;;;;;;;;5040669;28;20262;-63
2022/07/25 04:55:39;;;;;;;7.30;6.70;;;;;;;;;;5031045;28;20223;-60
2022/07/25 04:58:06;;;;;;;7.43;6.83;;;;;;;;;;5026651;28;20224;-63
2022/07/25 05:00:32;;;;;;;10.60;9.90;;;;;;;;;;5026934;28;20634;-63
2022/07/25 05:02:58;;;;;;;7.40;6.90;;;;;;;;;;5027833;28;20201;-62
2022/07/25 05:05:25;;;;;;;8.43;7.83;;;;;;;;;;5027426;28;20549;-61
2022/07/25 05:07:55;;;;;;;7.63;7.13;;;;;;;;;;5027379;28;20693;-62
2022/07/25 05:10:21;;;;;;;8.07;7.40;;;;;;;;;;5009820;28;20225;-62
2022/07/25 05:12:47;;;;;;;7.40;6.90;;;;;;;;;;5008801;28;20900;-63
2022/07/25 05:15:13;;;;;;;7.90;7.33;;;;;;;;;;5027347;28;20257;-62
2022/07/25 05:17:39;;;;;;;7.30;6.80;;;;;;;;;;5010160;28;20621;-64
2022/07/25 05:20:11;;;;;;;7.20;6.70;;;;;;;;;;5026426;28;20800;-63
2022/07/25 05:22:37;;;;;;;7.10;6.60;;;;;;;;;;5008386;28;20212;-63
2022/07/25 05:25:06;;;;;;;7.67;6.97;;;;;;;;;;5007234;28;20182;-60
2022/07/25 05:27:32;;;;;;;6.93;6.43;;;;;;;;;;5026990;28;20571;-64
2022/07/25 05:29:58;;;;;;;9.70;9.03;;;;;;;;;;5041376;28;20186;-63
2022/07/25 05:32:24;;;;;;;8.53;7.93;;;;;;;;;;5026080;28;20180;-63
2022/07/25 05:34:51;;;;;;;7.60;7.00;;;;;;;;;;5009341;28;20535;-63
2022/07/25 05:37:17;;;;;;;8.37;7.77;;;;;;;;;;5026103;28;20192;-62
2022/07/25 05:39:43;;;;;;;7.87;7.17;;;;;;;;;;5007533;28;20184;-63
2022/07/25 05:42:09;;;;;;;7.87;7.27;;;;;;;;;;5009472;28;20209;-64
2022/07/25 05:44:38;;;;;;;7.80;7.20;;;;;;;;;;5009813;28;20206;-64
2022/07/25 05:47:04;;;;;;;8.20;7.70;;;;;;;;;;5009246;28;20232;-64
2022/07/25 05:49:33;;;;;;;7.07;6.50;;;;;;;;;;5009089;28;20833;-63
2022/07/25 05:51:59;;;;;;;7.17;6.63;;;;;;;;;;5011370;28;20186;-64
2022/07/25 05:54:33;;;;;;;7.17;6.67;;;;;;;;;;5011978;28;20645;-66
2022/07/25 05:57:00;;;;;;;8.30;7.70;;;;;;;;;;5009219;28;20631;-65
2022/07/25 05:59:26;;;;;;;7.87;7.20;;;;;;;;;;5028959;28;20229;-66
2022/07/25 06:01:53;;;;;;;7.20;6.70;;;;;;;;;;5014707;28;20289;-64
2022/07/25 06:04:19;;;;;;;7.50;6.80;;;;;;;;;;5011643;28;20267;-65
2022/07/25 06:06:50;;;;;;;7.63;7.03;;;;;;;;;;5030203;28;20178;-62
2022/07/25 06:09:23;;;;;;;7.93;7.23;;;;;;;;;;5008646;28;20182;-65
2022/07/25 06:11:50;;;;;;;7.77;7.17;;;;;;;;;;5013284;28;20265;-66
2022/07/25 06:14:23;;;;;;;6.97;6.43;;;;;;;;;;5034082;28;20272;-60
2022/07/25 06:16:50;;;;;;;7.47;6.87;;;;;;;;;;5031144;28;20263;-60
2022/07/25 06:19:19;;;;;;;7.50;6.87;;;;;;;;;;5025507;28;20683;-60
2022/07/25 06:21:47;;;;;;;8.23;7.73;;;;;;;;;;5030244;28;20249;-60
2022/07/25 06:24:18;;;;;;;8.97;8.27;;;;;;;;;;5025413;28;20206;-60
2022/07/25 06:26:48;;;;;;;7.57;6.97;;;;;;;;;;5001766;28;20190;-60
2022/07/25 06:29:14;;;;;;;7.33;6.73;;;;;;;;;;5011794;28;20658;-59
2022/07/25 06:31:40;;;;;;;7.30;6.80;;;;;;;;;;5016299;28;20397;-60
2022/07/25 06:34:06;;;;;;;6.63;6.20;;;;;;;;;;5030481;28;20772;-59
2022/07/25 06:36:33;;;;;;;7.60;7.00;;;;;;;;;;5027683;28;20769;-60
2022/07/25 06:39:02;;;;;;;9.50;8.70;;;;;;;;;;5013410;28;20194;-60
2022/07/25 06:41:28;;;;;;;9.40;8.60;;;;;;;;;;5011413;28;20255;-59
2022/07/25 06:43:54;;;;;;;7.83;7.23;;;;;;;;;;5020516;28;20292;-60
2022/07/25 06:46:20;;;;;;;8.50;6.90;;;;;;;;;;5024581;28;20718;-60
2022/07/25 06:48:46;;;;;;;8.40;7.70;;;;;;;;;;5033789;28;20692;-60
2022/07/25 06:51:12;;;;;;;7.83;7.23;;;;;;;;;;5029549;28;20707;-60
2022/07/25 06:53:38;;;;;;;7.90;7.20;;;;;;;;;;5025500;28;20205;-60
2022/07/25 06:56:14;;;;;;;8.63;7.82;;;;;;;;;;5022399;28;20444;-60
2022/07/25 06:58:40;;;;;;;8.43;7.73;;;;;;;;;;5005424;28;20225;-61
2022/07/25 07:01:06;;;;;;;7.73;7.13;;;;;;;;;;5027632;28;20232;-60
2022/07/25 07:03:36;;;;;;;8.80;8.00;;;;;;;;;;5021442;28;20209;-60
2022/07/25 07:06:03;;;;;;;7.90;7.20;;;;;;;;;;5028856;28;20189;-60
2022/07/25 07:08:29;;;;;;;7.63;7.03;;;;;;;;;;5014267;28;20182;-59
2022/07/25 07:10:55;;;;;;;8.50;7.80;;;;;;;;;;5029205;28;20573;-61
2022/07/25 07:13:24;;;;;;;8.30;7.70;;;;;;;;;;5008709;28;20198;-59
2022/07/25 07:15:51;;;;;;;9.67;8.77;;;;;;;;;;5025142;28;20222;-57
2022/07/25 07:18:17;;;;;;;8.33;7.63;;;;;;;;;;5033892;28;20201;-59
2022/07/25 07:20:50;;;;;;;8.67;7.77;;;;;;;;;;5033046;28;20557;-60
2022/07/25 07:23:17;;;;;;;8.90;7.80;;;;;;;;;;5023393;28;20213;-59
2022/07/25 07:25:44;;;;;;;9.37;8.63;;;;;;;;;;5029497;28;20766;-59
2022/07/25 07:28:10;;;;;;;8.60;7.73;;;;;;;;;;5013706;28;20194;-59
2022/07/25 07:30:36;;;;;;;8.73;7.90;;;;;;;;;;5007270;28;20234;-59
2022/07/25 07:33:02;;;;;;;8.10;7.27;;;;;;;;;;5023510;28;20627;-59
2022/07/25 07:35:29;;;;;;;9.30;8.20;;;;;;;;;;5023380;28;20641;-59
2022/07/25 07:37:55;;;;;;;8.20;7.10;;;;;;;;;;5022838;28;20196;-60
2022/07/25 07:40:26;;;;;;;8.63;7.80;;;;;;;;;;5030677;28;20186;-58
2022/07/25 07:42:53;;;;;;;8.23;7.43;;;;;;;;;;4996714;28;20219;-60
2022/07/25 07:45:31;;;;;;;8.07;7.27;;;;;;;;;;5010300;28;20201;-59
2022/07/25 07:47:57;;;;;;;7.40;6.80;;;;;;;;;;5005091;28;20218;-59
2022/07/25 07:50:25;;;;;;;8.07;7.45;;;;;;;;;;5021365;28;20427;-58
2022/07/25 07:53:00;;;;;;;7.87;7.10;;;;;;;;;;5021745;28;20174;-59
2022/07/25 07:55:46;;;;;;;9.57;7.13;;;;;;;;;;5007928;28;20194;-58
2022/07/25 07:58:14;;;;;;;7.90;7.30;;;;;;;;;;5002562;28;20314;-59
2022/07/25 08:00:41;;;;;;;8.37;7.70;;;;;;;;;;5026404;28;20187;-60
2022/07/25 08:03:09;;;;;;;7.97;7.27;;;;;;;;;;5025405;28;20400;-58
2022/07/25 08:05:40;;;;;;;7.87;7.17;;;;;;;;;;5023606;28;20536;-59
2022/07/25 08:08:07;;;;;;;9.93;7.63;;;;;;;;;;5021651;28;20665;-59
2022/07/25 08:10:35;;;;;;;9.33;8.33;;;;;;;;;;5027425;28;20161;-59
2022/07/25 08:13:27;;;;;;;8.33;7.57;;;;;;;;;;5004921;28;20241;-59
2022/07/25 08:16:02;;;;;;;8.20;7.50;;;;;;;;;;4984151;28;20227;-59
2022/07/25 08:18:35;;;;;;;8.23;7.53;;;;;;;;;;4991528;28;20187;-59
2022/07/25 08:21:05;;;;;;;7.83;7.20;;;;;;;;;;5028510;28;20222;-59
2022/07/25 08:23:34;;;;;;;8.00;7.30;;;;;;;;;;5006351;28;20197;-60
2022/07/25 08:26:03;;;;;;;7.77;7.17;;;;;;;;;;5025514;28;20653;-58
2022/07/25 08:28:29;;;;;;;8.63;7.67;;;;;;;;;;5025118;28;20270;-59
2022/07/25 08:30:57;;;;;;;8.33;7.40;;;;;;;;;;5027038;28;20652;-60
2022/07/25 08:33:24;;;;;;;7.87;7.20;;;;;;;;;;5021773;28;20659;-60
2022/07/25 08:35:52;;;;;;;8.27;7.57;;;;;;;;;;5026456;28;20273;-59
2022/07/25 08:38:21;;;;;;;7.93;7.33;;;;;;;;;;5008521;28;20751;-59
2022/07/25 08:40:47;;;;;;;7.17;6.67;;;;;;;;;;5008010;28;20217;-59
2022/07/25 08:43:15;;;;;;;8.20;7.43;;;;;;;;;;5027168;28;20197;-60
2022/07/25 08:45:54;;;;;;;7.60;6.90;;;;;;;;;;5033490;28;20193;-60
2022/07/25 08:48:22;;;;;;;7.33;6.73;;;;;;;;;;5024690;28;20654;-60
2022/07/25 08:50:49;;;;;;;7.03;6.43;;;;;;;;;;5008831;28;20189;-58
2022/07/25 08:53:17;;;;;;;8.10;7.33;;;;;;;;;;5007347;28;20641;-58
2022/07/25 08:55:44;;;;;;;7.97;7.27;;;;;;;;;;5009375;28;20715;-59
2022/07/25 08:58:11;;;;;;;9.30;8.50;;;;;;;;;;5005873;28;20585;-59
2022/07/25 09:00:41;;;;;;;7.97;7.20;;;;;;;;;;5005571;28;20179;-58
2022/07/25 09:03:08;;;;;;;7.70;6.90;;;;;;;;;;5001008;28;20627;-60
2022/07/25 09:05:36;;;;;;;10.50;7.13;;;;;;;;;;4984646;28;20194;-59
2022/07/25 09:08:07;;;;;;;7.57;6.97;;;;;;;;;;5003812;28;20215;-59
2022/07/25 09:10:34;;;;;;;7.90;7.30;;;;;;;;;;4989623;28;20171;-58
2022/07/25 09:13:14;;;;;;;;;;;;;;;;;;;;;
2022/07/25 09:15:47;;;;;;;8.10;7.27;;;;;;;;;;5008267;28;20177;-59
2022/07/25 09:18:14;;;;;;;7.60;7.00;;;;;;;;;;4991394;28;20171;-59
2022/07/25 09:20:42;;;;;;;8.40;7.63;;;;;;;;;;4996104;28;20219;-59
2022/07/25 09:23:08;;;;;;;8.13;7.40;;;;;;;;;;5000756;28;20709;-59
2022/07/25 09:25:35;;;;;;;8.37;7.67;;;;;;;;;;5011617;28;20202;-60
2022/07/25 09:28:22;;;;;;;7.10;6.60;;;;;;;;;;5007477;28;20190;-60
2022/07/25 09:31:01;;;;;;;7.10;6.50;;;;;;;;;;4991420;28;20667;-59
2022/07/25 09:33:28;;;;;;;7.40;6.80;;;;;;;;;;5006950;28;20201;-60
2022/07/25 09:35:55;;;;;;;7.10;6.50;;;;;;;;;;5010034;28;20277;-60
2022/07/25 09:38:22;;;;;;;7.27;6.63;;;;;;;;;;5006275;28;20195;-59
2022/07/25 09:40:58;;;;;;;8.60;7.90;;;;;;;;;;5006416;28;20188;-60
2022/07/25 09:43:41;;;;;;;7.37;6.77;;;;;;;;;;5011211;28;20215;-60
2022/07/25 09:46:08;;;;;;;9.37;6.87;;;;;;;;;;4993172;28;20185;-60
2022/07/25 09:48:35;;;;;;;7.23;6.73;;;;;;;;;;4993005;28;20607;-59
2022/07/25 09:51:01;;;;;;;8.77;7.93;;;;;;;;;;5003598;28;20188;-60
2022/07/25 09:53:28;;;;;;;7.37;6.67;;;;;;;;;;4983543;28;20191;-60
2022/07/25 09:55:55;;;;;;;8.20;6.30;;;;;;;;;;5014431;28;20241;-59
2022/07/25 09:58:22;;;;;;;6.77;6.20;;;;;;;;;;4994505;28;20302;-59
2022/07/25 10:00:49;;;;;;;6.30;5.80;;;;;;;;;;5029417;28;20261;-59
2022/07/25 10:03:17;;;;;;;6.27;5.77;;;;;;;;;;5007004;28;20259;-59
2022/07/25 10:05:57;;;;;;;6.90;6.23;;;;;;;;;;5026104;28;20204;-58
2022/07/25 10:08:27;;;;;;;6.83;6.13;;;;;;;;;;5024649;28;20187;-61
2022/07/25 10:10:53;;;;;;;6.53;6.00;;;;;;;;;;5011253;28;20187;-59
2022/07/25 10:13:37;;;;;;;9.17;5.70;;;;;;;;;;5006668;28;20720;-57
2022/07/25 10:16:13;;;;;;;7.50;6.03;;;;;;;;;;5002911;28;20185;-58
2022/07/25 10:18:47;;;;;;;7.27;6.10;;;;;;;;;;5008206;28;20534;-58
2022/07/25 10:21:13;;;;;;;5.77;5.20;;;;;;;;;;5021655;28;20292;-58
2022/07/25 10:23:42;;;;;;;5.40;4.93;;;;;;;;;;5011595;28;20224;-58
2022/07/25 10:26:12;;;;;;;5.30;4.90;;;;;;;;;;5012171;28;20656;-59
2022/07/25 10:28:46;;;;;;;5.83;5.33;;;;;;;;;;5022315;28;20185;-59
2022/07/25 10:31:17;;;;;;;6.10;5.50;;;;;;;;;;5013672;28;20162;-59
2022/07/25 10:33:50;;;;;;;6.30;5.60;;;;;;;;;;5027867;28;20221;-59
2022/07/25 10:36:20;;;;;;;6.40;5.50;;;;;;;;;;5008791;28;20213;-59
2022/07/25 10:38:46;;;;;;;6.03;5.63;;;;;;;;;;5009388;28;20190;-59
2022/07/25 10:41:15;;;;;;;5.90;5.40;;;;;;;;;;5029519;28;20184;-58
2022/07/25 10:43:43;;;;;;;6.20;5.70;;;;;;;;;;5009679;28;20217;-59
2022/07/25 10:46:19;;;;;;;6.17;5.57;;;;;;;;;;5024409;28;20178;-60
2022/07/25 10:48:56;;;;;;;6.00;5.60;;;;;;;;;;5026227;28;20231;-59
2022/07/25 10:51:26;;;;;;;6.47;5.23;;;;;;;;;;5030139;28;20170;-59
2022/07/25 10:53:54;;;;;;;5.57;5.07;;;;;;;;;;5027414;28;20186;-59
2022/07/25 10:56:22;;;;;;;5.90;5.40;;;;;;;;;;5010850;28;20201;-59
2022/07/25 10:58:52;;;;;;;5.83;5.23;;;;;;;;;;5026902;28;20754;-59
2022/07/25 11:01:22;;;;;;;5.67;5.27;;;;;;;;;;5006843;28;20190;-59
2022/07/25 11:03:49;;;;;;;5.80;5.40;;;;;;;;;;5027167;28;20602;-59
2022/07/25 11:06:16;;;;;;;5.10;4.73;;;;;;;;;;5029307;28;20190;-59
2022/07/25 11:08:45;;;;;;;5.57;4.90;;;;;;;;;;5009354;28;20181;-59
2022/07/25 11:11:12;;;;;;;5.17;4.67;;;;;;;;;;5011868;28;20169;-58
2022/07/25 11:13:39;;;;;;;5.57;5.07;;;;;;;;;;5015695;28;20260;-59
2022/07/25 11:16:05;;;;;;;6.37;4.80;;;;;;;;;;5013609;28;20280;-58
2022/07/25 11:18:33;;;;;;;5.13;4.60;;;;;;;;;;5026438;28;20196;-59
2022/07/25 11:21:00;;;;;;;4.80;4.43;;;;;;;;;;5028282;28;20299;-59
2022/07/25 11:23:26;;;;;;;5.13;4.73;;;;;;;;;;5018868;28;20624;-58
2022/07/25 11:25:52;;;;;;;5.97;5.60;;;;;;;;;;5029209;28;20249;-59
2022/07/25 11:28:18;;;;;;;;;;;;;;;;;;5028309;28;20236;-59
2022/07/25 11:30:44;;;;;;;5.30;4.90;;;;;;;;;;5009521;28;20316;-59
2022/07/25 11:33:15;;;;;;;4.60;4.10;;;;;;;;;;5028268;28;20741;-59
2022/07/25 11:35:47;;;;;;;6.70;4.80;;;;;;;;;;5011444;28;20185;-57
2022/07/25 11:38:16;;;;;;;6.33;5.00;;;;;;;;;;5006162;28;20541;-56
2022/07/25 11:40:43;;;;;;;5.30;4.43;;;;;;;;;;5010191;28;20633;-56
2022/07/25 11:43:19;;;;;;;6.20;4.27;;;;;;;;;;5023824;28;20545;-56
2022/07/25 11:45:58;;;;;;;4.93;4.57;;;;;;;;;;5028254;28;20192;-57
2022/07/25 11:48:52;;;;;;;5.30;4.90;;;;;;;;;;5013528;28;20180;-57
2022/07/25 11:51:18;;;;;;;8.30;4.67;;;;;;;;;;5021072;28;20182;-56
2022/07/25 11:53:46;;;;;;;8.53;5.60;;;;;;;;;;5023991;28;20191;-57
2022/07/25 11:56:13;;;;;;;4.40;4.10;;;;;;;;;;5025350;28;20186;-57
2022/07/25 11:58:39;;;;;;;6.23;4.67;;;;;;;;;;5028352;28;20358;-57
2022/07/25 12:01:20;;;;;;;5.50;5.10;;;;;;;;;;5012461;28;20531;-57
2022/07/25 12:03:48;;;;;;;10.63;5.10;;;;;;;;;;5032113;28;20209;-56
2022/07/25 12:06:15;;;;;;;6.07;4.20;;;;;;;;;;5029145;28;20638;-56
2022/07/25 12:08:41;;;;;;;5.30;4.67;;;;;;;;;;5022912;28;20591;-56
2022/07/25 12:11:18;;;;;;;4.97;4.57;;;;;;;;;;5026581;28;20264;-56
2022/07/25 12:13:44;;;;;;;5.40;4.50;;;;;;;;;;5033346;28;20260;-57
2022/07/25 12:16:13;;;;;;;7.23;4.57;;;;;;;;;;5029028;28;20272;-56
2022/07/25 12:18:40;;;;;;;5.17;3.87;;;;;;;;;;4990586;28;20189;-56
2022/07/25 12:21:06;;;;;;;7.93;7.23;;;;;;;;;;5024942;28;20274;-57
2022/07/25 12:23:33;;;;;;;4.47;4.07;;;;;;;;;;5025048;28;20208;-56
2022/07/25 12:25:59;;;;;;;6.33;4.20;;;;;;;;;;5011045;28;20534;-57
2022/07/25 12:28:27;;;;;;;5.30;4.23;;;;;;;;;;5008685;28;20260;-57
2022/07/25 12:30:53;;;;;;;6.20;4.50;;;;;;;;;;5043397;28;20184;-56
2022/07/25 12:33:19;;;;;;;5.50;4.40;;;;;;;;;;5027562;28;20241;-57
2022/07/25 12:35:48;;;;;;;4.47;4.07;;;;;;;;;;5028420;28;20181;-56
2022/07/25 12:38:14;;;;;;;6.07;4.13;;;;;;;;;;5013129;28;20171;-56
2022/07/25 12:40:40;;;;;;;3.63;3.33;;;;;;;;;;5028179;28;20213;-56
2022/07/25 12:43:07;;;;;;;4.50;3.93;;;;;;;;;;5031475;28;20715;-55
2022/07/25 12:45:33;;;;;;;4.73;4.20;;;;;;;;;;5010359;28;20188;-55
2022/07/25 12:47:59;;;;;;;6.00;4.33;;;;;;;;;;5028431;28;20181;-54
2022/07/25 12:50:25;;;;;;;5.03;4.33;;;;;;;;;;5009330;28;20656;-54
2022/07/25 12:52:58;;;;;;;6.60;3.97;;;;;;;;;;5024875;28;20520;-55
2022/07/25 12:55:24;;;;;;;5.00;4.60;;;;;;;;;;5030753;28;20181;-54
2022/07/25 12:57:50;;;;;;;19.92;5.22;;;;;;;;;;5024711;28;20187;-54
2022/07/25 13:00:18;;;;;;;5.43;4.00;;;;;;;;;;5010640;28;20217;-54
2022/07/25 13:02:44;;;;;;;4.25;3.85;;;;;;;;;;5011847;28;20200;-54
2022/07/25 13:05:11;;;;;;;4.00;3.70;;;;;;;;;;5028898;28;20616;-55
2022/07/25 13:07:37;;;;;;;6.63;4.90;;;;;;;;;;5014143;28;20177;-54
2022/07/25 13:10:03;;;;;;;4.00;3.63;;;;;;;;;;5030082;28;20205;-54
2022/07/25 13:12:30;;;;;;;4.97;4.10;;;;;;;;;;5020281;28;20435;-55
2022/07/25 13:14:56;;;;;;;4.15;3.75;;;;;;;;;;5023287;28;20177;-56
2022/07/25 13:17:22;;;;;;;4.82;4.38;;;;;;;;;;5018966;28;20200;-55
2022/07/25 13:19:48;;;;;;;3.92;3.50;;;;;;;;;;5022585;28;20598;-55
2022/07/25 13:22:21;;;;;;;3.83;3.53;;;;;;;;;;5023787;28;20181;-55
2022/07/25 13:24:47;;;;;;;5.05;3.70;;;;;;;;;;5024169;28;20202;-56
2022/07/25 13:27:13;;;;;;;6.78;4.45;;;;;;;;;;5027040;28;20732;-55
2022/07/25 13:29:39;;;;;;;3.83;3.45;;;;;;;;;;5008033;28;20705;-55
2022/07/25 13:32:05;;;;;;;3.83;3.53;;;;;;;;;;5023451;28;20200;-56
2022/07/25 13:34:32;;;;;;;4.00;3.70;;;;;;;;;;5026601;28;20174;-56
2022/07/25 13:36:58;;;;;;;6.15;4.38;;;;;;;;;;5026354;28;20641;-55
2022/07/25 13:39:24;;;;;;;4.13;3.83;;;;;;;;;;5026176;28;20710;-55
2022/07/25 13:41:50;;;;;;;6.05;5.65;;;;;;;;;;5023212;28;20547;-55
2022/07/25 13:44:16;;;;;;;4.20;3.90;;;;;;;;;;5020245;28;20203;-56
2022/07/25 13:46:43;;;;;;;4.75;4.30;;;;;;;;;;5005952;28;20423;-56
2022/07/25 13:49:10;;;;;;;3.90;3.55;;;;;;;;;;5007482;28;20221;-56
2022/07/25 13:51:36;;;;;;;4.07;3.72;;;;;;;;;;5022728;28;20190;-56
2022/07/25 13:54:03;;;;;;;5.05;4.55;;;;;;;;;;5025568;28;20168;-55
2022/07/25 13:56:29;;;;;;;4.75;4.32;;;;;;;;;;5026690;28;20554;-55
2022/07/25 13:59:16;;;;;;;4.03;3.67;;;;;;;;;;5027783;28;20299;-56
2022/07/25 14:01:43;;;;;;;4.55;3.72;;;;;;;;;;5023656;28;20175;-56
2022/07/25 14:04:09;;;;;;;6.82;6.32;;;;;;;;;;5022141;28;20285;-56
2022/07/25 14:06:35;;;;;;;4.00;3.53;;;;;;;;;;5021775;28;20189;-55
2022/07/25 14:09:01;;;;;;;3.83;3.42;;;;;;;;;;5009361;28;20595;-56
2022/07/25 14:11:27;;;;;;;3.72;3.42;;;;;;;;;;5026733;28;20637;-56
2022/07/25 14:13:54;;;;;;;3.90;3.60;;;;;;;;;;5010723;28;20656;-56
2022/07/25 14:16:20;;;;;;;4.95;4.20;;;;;;;;;;5031864;28;20185;-55
2022/07/25 14:18:46;;;;;;;4.72;3.45;;;;;;;;;;5027966;28;20578;-55
2022/07/25 14:21:12;;;;;;;7.20;6.60;;;;;;;;;;5030883;28;20270;-55
2022/07/25 14:23:38;;;;;;;6.13;4.95;;;;;;;;;;5036650;28;20255;-55
2022/07/25 14:26:04;;;;;;;4.10;3.80;;;;;;;;;;5047622;28;20211;-55
2022/07/25 14:28:31;;;;;;;6.13;3.85;;;;;;;;;;5036757;28;20270;-55
2022/07/25 14:30:58;;;;;;;5.03;3.90;;;;;;;;;;5041755;28;20188;-55
2022/07/25 14:33:24;;;;;;;5.60;3.53;;;;;;;;;;5015613;28;20196;-55
2022/07/25 14:35:51;;;;;;;4.25;3.88;;;;;;;;;;5030301;28;20172;-56
2022/07/25 14:38:17;;;;;;;5.00;4.38;;;;;;;;;;5028085;28;20260;-56
2022/07/25 14:40:43;;;;;;;3.75;3.40;;;;;;;;;;5029830;28;20550;-56
2022/07/25 14:43:09;;;;;;;4.50;3.97;;;;;;;;;;5010937;28;20186;-56
2022/07/25 14:45:35;;;;;;;4.53;3.60;;;;;;;;;;5029825;28;20185;-56
2022/07/25 14:48:02;;;;;;;3.58;3.28;;;;;;;;;;5028497;28;20178;-56